createdAt,value
2017-04-06T00:02:00.025Z,1017.89
2017-04-06T00:11:59.993Z,1017.95
2017-04-06T00:22:00.044Z,1017.84
2017-04-06T00:31:59.999Z,1017.86
2017-04-06T00:42:00.088Z,1017.65
2017-04-06T00:52:00.034Z,1017.62
2017-04-06T01:02:00.095Z,1017.69
2017-04-06T01:12:00.069Z,1017.58
2017-04-06T01:22:00.032Z,1017.56
2017-04-06T01:31:59.984Z,1017.65
2017-04-06T01:42:00.035Z,1017.56
2017-04-06T01:51:59.991Z,1017.61
2017-04-06T02:02:00.066Z,1017.6
2017-04-06T02:12:00.031Z,1017.66
2017-04-06T02:22:00.001Z,1017.73
2017-04-06T02:32:00.050Z,1017.81
2017-04-06T02:42:00.007Z,1017.89
2017-04-06T02:51:59.971Z,1017.89
2017-04-06T03:02:00.028Z,1017.88
2017-04-06T03:12:00.000Z,1017.95
2017-04-06T03:21:59.951Z,1017.78
2017-04-06T03:31:59.933Z,1018.08
2017-04-06T03:41:59.985Z,1018.13
2017-04-06T03:52:00.045Z,1018.26
2017-04-06T04:02:00.001Z,1018.36
2017-04-06T04:11:59.972Z,1018.63
2017-04-06T04:22:00.022Z,1018.65
2017-04-06T04:31:59.979Z,1018.74
2017-04-06T04:41:59.945Z,1018.7
2017-04-06T04:52:00.007Z,1018.76
2017-04-06T05:01:59.970Z,1018.83
2017-04-06T05:11:59.936Z,1018.64
2017-04-06T05:21:59.991Z,1018.67
2017-04-06T05:31:59.950Z,1018.69
2017-04-06T05:42:00.012Z,1018.85
2017-04-06T05:51:59.970Z,1019.01
2017-04-06T06:01:59.947Z,1019.07
2017-04-06T06:12:00.011Z,1019.29
2017-04-06T06:21:59.978Z,1019.32
2017-04-06T06:31:59.929Z,1019.39
2017-04-06T06:41:59.995Z,1019.46
2017-04-06T06:51:59.962Z,1019.44
2017-04-06T07:02:00.016Z,1019.6
2017-04-06T07:11:59.966Z,1019.75
2017-04-06T07:21:59.936Z,1019.87
2017-04-06T07:31:59.999Z,1019.65
2017-04-06T07:41:59.963Z,1019.67
2017-04-06T07:51:59.926Z,1019.86
2017-04-06T08:02:00.061Z,1019.85
2017-04-06T08:11:59.949Z,1019.9
2017-04-06T08:22:00.000Z,1020.05
2017-04-06T08:31:59.973Z,1020.08
2017-04-06T08:41:59.929Z,1020.22
2017-04-06T08:51:59.998Z,1020.25
2017-04-06T09:01:59.956Z,1020.23
2017-04-06T09:11:59.927Z,1020.21
2017-04-06T09:21:59.984Z,1020.35
2017-04-06T09:31:59.935Z,1020.52
2017-04-06T09:42:01.095Z,1020.47
2017-04-06T09:52:01.002Z,1020.64
2017-04-06T10:02:00.772Z,1020.61
2017-04-06T10:12:00.665Z,1020.62
2017-04-06T10:21:59.947Z,1020.54
2017-04-06T10:31:59.924Z,1020.51
2017-04-06T10:41:59.970Z,1020.46
2017-04-06T10:51:59.938Z,1020.32
2017-04-06T11:01:59.903Z,1020.18
2017-04-06T11:11:59.957Z,1020.35
2017-04-06T11:21:59.921Z,1020.47
2017-04-06T11:31:59.980Z,1020.29
2017-04-06T11:41:59.955Z,1020.26
2017-04-06T11:52:00.012Z,1020.3
2017-04-06T12:01:59.967Z,1020.26
2017-04-06T12:12:03.512Z,1020.19
2017-04-06T12:21:59.983Z,1020.17
2017-04-06T12:31:59.941Z,1020.04
2017-04-06T12:42:00.017Z,1019.95
2017-04-06T12:51:59.975Z,1019.85
2017-04-06T13:01:59.948Z,1019.84
2017-04-06T13:12:00.552Z,1019.8
2017-04-06T13:21:59.956Z,1019.78
2017-04-06T13:31:59.919Z,1019.52
2017-04-06T13:42:01.020Z,1019.52
2017-04-06T13:51:59.941Z,1019.38
2017-04-06T14:02:00.008Z,1019.42
2017-04-06T14:11:59.969Z,1019.37
2017-04-06T14:22:07.819Z,1019.51
2017-04-06T14:31:59.991Z,1019.5
2017-04-06T14:41:59.961Z,1019.4
2017-04-06T14:52:00.012Z,1019.44
2017-04-06T15:01:59.971Z,1019.32
2017-04-06T15:11:59.932Z,1019.31
2017-04-06T15:22:00.930Z,1019.38
2017-04-06T15:31:59.970Z,1019.56
2017-04-06T15:41:59.901Z,1019.45
2017-04-06T15:51:59.918Z,1019.47
2017-04-06T16:01:59.902Z,1019.43
2017-04-06T16:11:59.909Z,1019.21
2017-04-06T16:21:59.906Z,1019.41
2017-04-06T16:31:59.900Z,1019.31
2017-04-06T16:41:59.911Z,1019.38
2017-04-06T16:51:59.913Z,1019.31
2017-04-06T17:01:59.918Z,1019.4
2017-04-06T17:11:59.902Z,1019.39
2017-04-06T17:21:59.908Z,1019.39
2017-04-06T17:31:59.910Z,1019.32
2017-04-06T17:41:59.903Z,1019.14
2017-04-06T17:51:59.904Z,1018.94
2017-04-06T18:01:59.917Z,1018.99
2017-04-06T18:11:59.893Z,1019.04
2017-04-06T18:21:59.895Z,1019.1
2017-04-06T18:31:59.911Z,1019.12
2017-04-06T18:41:59.897Z,1019.15
2017-04-06T18:51:59.900Z,1019.34
2017-04-06T19:01:59.904Z,1019.46
2017-04-06T19:11:59.907Z,1019.45
2017-04-06T19:22:01.941Z,1019.5
2017-04-06T19:31:59.913Z,1019.52
2017-04-06T19:42:01.047Z,1019.56
2017-04-06T20:22:05.953Z,1019.63
2017-04-06T20:42:02.360Z,1019.65
2017-04-06T20:52:00.927Z,1019.69
2017-04-06T21:01:59.991Z,1019.75
2017-04-06T21:11:59.932Z,1019.79
2017-04-06T21:21:59.970Z,1019.77
2017-04-06T21:31:59.920Z,1019.77
2017-04-06T21:41:59.987Z,1019.67
2017-04-06T21:52:00.388Z,1019.69
2017-04-06T22:01:59.909Z,1019.66
2017-04-06T22:11:59.981Z,1019.64
2017-04-06T22:21:59.931Z,1019.6
2017-04-06T22:31:59.900Z,1019.41
2017-04-06T22:41:59.950Z,1019.34
2017-04-06T22:51:59.951Z,1019.24
2017-04-06T23:01:59.880Z,1019.07
2017-04-06T23:11:59.941Z,1019.04
2017-04-06T23:21:59.901Z,1019
2017-04-06T23:31:59.968Z,1018.8
2017-04-06T23:41:59.926Z,1018.69
2017-04-06T23:51:59.893Z,1018.59
